sensor_id;sensor_type;location;lat;lon;timestamp;temperature;humidity
68943;DHT22;60852;52.190;4.422;2022-09-01T00:01:28;17.43;72.18
68943;DHT22;60852;52.190;4.422;2022-09-01T00:03:56;17.43;72.21
68943;DHT22;60852;52.190;4.422;2022-09-01T00:06:24;17.43;72.27
68943;DHT22;60852;52.190;4.422;2022-09-01T00:08:55;17.38;72.41
68943;DHT22;60852;52.190;4.422;2022-09-01T00:11:23;17.42;72.49
68943;DHT22;60852;52.190;4.422;2022-09-01T00:13:51;17.38;72.64
68943;DHT22;60852;52.190;4.422;2022-09-01T00:16:20;17.36;72.74
68943;DHT22;60852;52.190;4.422;2022-09-01T00:18:49;17.34;72.95
68943;DHT22;60852;52.190;4.422;2022-09-01T00:21:17;17.27;73.18
68943;DHT22;60852;52.190;4.422;2022-09-01T00:23:45;17.22;73.46
68943;DHT22;60852;52.190;4.422;2022-09-01T00:26:11;17.17;73.68
68943;DHT22;60852;52.190;4.422;2022-09-01T00:28:38;17.14;73.85
68943;DHT22;60852;52.190;4.422;2022-09-01T00:31:05;17.15;73.93
68943;DHT22;60852;52.190;4.422;2022-09-01T00:33:34;17.11;74.16
68943;DHT22;60852;52.190;4.422;2022-09-01T00:36:00;17.08;74.30
68943;DHT22;60852;52.190;4.422;2022-09-01T00:38:26;17.10;74.32
68943;DHT22;60852;52.190;4.422;2022-09-01T00:40:52;17.10;74.37
68943;DHT22;60852;52.190;4.422;2022-09-01T00:43:38;17.10;74.44
68943;DHT22;60852;52.190;4.422;2022-09-01T00:46:08;17.04;74.70
68943;DHT22;60852;52.190;4.422;2022-09-01T00:48:34;16.99;74.98
68943;DHT22;60852;52.190;4.422;2022-09-01T00:51:01;16.94;75.12
68943;DHT22;60852;52.190;4.422;2022-09-01T00:53:27;16.97;75.20
68943;DHT22;60852;52.190;4.422;2022-09-01T00:55:53;16.95;75.22
68943;DHT22;60852;52.190;4.422;2022-09-01T00:58:19;16.93;75.33
68943;DHT22;60852;52.190;4.422;2022-09-01T01:00:47;16.91;75.43
68943;DHT22;60852;52.190;4.422;2022-09-01T01:03:14;16.91;75.37
68943;DHT22;60852;52.190;4.422;2022-09-01T01:05:43;16.93;75.52
68943;DHT22;60852;52.190;4.422;2022-09-01T01:08:16;16.90;75.60
68943;DHT22;60852;52.190;4.422;2022-09-01T01:10:44;16.88;75.71
68943;DHT22;60852;52.190;4.422;2022-09-01T01:13:15;16.87;75.90
68943;DHT22;60852;52.190;4.422;2022-09-01T01:15:42;16.88;75.98
68943;DHT22;60852;52.190;4.422;2022-09-01T01:18:11;16.88;76.05
68943;DHT22;60852;52.190;4.422;2022-09-01T01:20:37;16.87;76.26
68943;DHT22;60852;52.190;4.422;2022-09-01T01:23:53;16.84;76.35
68943;DHT22;60852;52.190;4.422;2022-09-01T01:26:21;16.83;76.39
68943;DHT22;60852;52.190;4.422;2022-09-01T01:28:47;16.83;76.55
68943;DHT22;60852;52.190;4.422;2022-09-01T01:31:16;16.79;76.72
68943;DHT22;60852;52.190;4.422;2022-09-01T01:33:44;16.77;76.91
68943;DHT22;60852;52.190;4.422;2022-09-01T01:36:14;16.77;76.93
68943;DHT22;60852;52.190;4.422;2022-09-01T01:38:43;16.74;76.96
68943;DHT22;60852;52.190;4.422;2022-09-01T01:41:10;16.73;77.06
68943;DHT22;60852;52.190;4.422;2022-09-01T01:43:36;16.72;77.13
68943;DHT22;60852;52.190;4.422;2022-09-01T01:46:05;16.66;77.27
68943;DHT22;60852;52.190;4.422;2022-09-01T01:48:33;16.64;77.35
68943;DHT22;60852;52.190;4.422;2022-09-01T01:51:02;16.62;77.38
68943;DHT22;60852;52.190;4.422;2022-09-01T01:53:30;16.62;77.29
68943;DHT22;60852;52.190;4.422;2022-09-01T01:55:56;16.59;77.39
68943;DHT22;60852;52.190;4.422;2022-09-01T01:58:24;16.57;77.36
68943;DHT22;60852;52.190;4.422;2022-09-01T02:00:52;16.53;77.34
68943;DHT22;60852;52.190;4.422;2022-09-01T02:03:24;16.52;77.43
68943;DHT22;60852;52.190;4.422;2022-09-01T02:05:52;16.52;77.50
68943;DHT22;60852;52.190;4.422;2022-09-01T02:08:21;16.53;77.42
68943;DHT22;60852;52.190;4.422;2022-09-01T02:10:53;16.53;77.42
68943;DHT22;60852;52.190;4.422;2022-09-01T02:13:21;16.48;77.57
68943;DHT22;60852;52.190;4.422;2022-09-01T02:16:01;16.48;77.63
68943;DHT22;60852;52.190;4.422;2022-09-01T02:18:36;16.48;77.58
68943;DHT22;60852;52.190;4.422;2022-09-01T02:21:05;16.48;77.67
68943;DHT22;60852;52.190;4.422;2022-09-01T02:23:39;16.45;77.68
68943;DHT22;60852;52.190;4.422;2022-09-01T02:26:07;16.48;77.62
68943;DHT22;60852;52.190;4.422;2022-09-01T02:28:35;16.45;77.69
68943;DHT22;60852;52.190;4.422;2022-09-01T02:31:03;16.45;77.66
68943;DHT22;60852;52.190;4.422;2022-09-01T02:33:30;16.42;77.63
68943;DHT22;60852;52.190;4.422;2022-09-01T02:36:02;16.39;77.76
68943;DHT22;60852;52.190;4.422;2022-09-01T02:38:29;16.35;77.90
68943;DHT22;60852;52.190;4.422;2022-09-01T02:41:01;16.32;77.90
68943;DHT22;60852;52.190;4.422;2022-09-01T02:43:27;16.30;77.87
68943;DHT22;60852;52.190;4.422;2022-09-01T02:45:56;16.28;77.93
68943;DHT22;60852;52.190;4.422;2022-09-01T02:48:36;16.22;78.17
68943;DHT22;60852;52.190;4.422;2022-09-01T02:51:05;16.18;78.20
68943;DHT22;60852;52.190;4.422;2022-09-01T02:53:32;16.16;78.30
68943;DHT22;60852;52.190;4.422;2022-09-01T02:56:00;16.09;78.34
68943;DHT22;60852;52.190;4.422;2022-09-01T02:58:28;16.09;78.32
68943;DHT22;60852;52.190;4.422;2022-09-01T03:00:57;16.05;78.36
68943;DHT22;60852;52.190;4.422;2022-09-01T03:03:24;16.04;78.39
68943;DHT22;60852;52.190;4.422;2022-09-01T03:05:51;16.06;78.23
68943;DHT22;60852;52.190;4.422;2022-09-01T03:08:22;16.05;78.11
68943;DHT22;60852;52.190;4.422;2022-09-01T03:10:49;16.02;78.19
68943;DHT22;60852;52.190;4.422;2022-09-01T03:13:22;15.97;78.23
68943;DHT22;60852;52.190;4.422;2022-09-01T03:15:49;15.98;78.06
68943;DHT22;60852;52.190;4.422;2022-09-01T03:18:16;15.97;78.07
68943;DHT22;60852;52.190;4.422;2022-09-01T03:20:44;15.93;78.16
68943;DHT22;60852;52.190;4.422;2022-09-01T03:23:14;15.93;78.13
68943;DHT22;60852;52.190;4.422;2022-09-01T03:25:43;15.91;78.10
68943;DHT22;60852;52.190;4.422;2022-09-01T03:28:10;15.93;78.00
68943;DHT22;60852;52.190;4.422;2022-09-01T03:30:40;15.93;77.98
68943;DHT22;60852;52.190;4.422;2022-09-01T03:33:09;15.88;77.96
68943;DHT22;60852;52.190;4.422;2022-09-01T03:35:35;15.83;78.02
68943;DHT22;60852;52.190;4.422;2022-09-01T03:38:02;15.81;77.97
68943;DHT22;60852;52.190;4.422;2022-09-01T03:40:32;15.84;77.86
68943;DHT22;60852;52.190;4.422;2022-09-01T03:43:03;15.77;77.90
68943;DHT22;60852;52.190;4.422;2022-09-01T03:45:29;15.74;77.76
68943;DHT22;60852;52.190;4.422;2022-09-01T03:48:00;15.68;77.58
68943;DHT22;60852;52.190;4.422;2022-09-01T03:50:28;15.70;77.64
68943;DHT22;60852;52.190;4.422;2022-09-01T03:52:57;15.64;77.55
68943;DHT22;60852;52.190;4.422;2022-09-01T03:55:27;15.61;77.46
68943;DHT22;60852;52.190;4.422;2022-09-01T03:57:57;15.63;77.38
68943;DHT22;60852;52.190;4.422;2022-09-01T04:00:26;15.64;77.23
68943;DHT22;60852;52.190;4.422;2022-09-01T04:02:57;15.63;76.94
68943;DHT22;60852;52.190;4.422;2022-09-01T04:05:24;15.61;76.78
68943;DHT22;60852;52.190;4.422;2022-09-01T04:07:55;15.58;76.80
68943;DHT22;60852;52.190;4.422;2022-09-01T04:10:22;15.61;76.65
68943;DHT22;60852;52.190;4.422;2022-09-01T04:12:49;15.60;76.48
68943;DHT22;60852;52.190;4.422;2022-09-01T04:15:16;15.58;76.49
68943;DHT22;60852;52.190;4.422;2022-09-01T04:17:43;15.57;76.45
68943;DHT22;60852;52.190;4.422;2022-09-01T04:20:27;15.55;76.41
68943;DHT22;60852;52.190;4.422;2022-09-01T04:22:53;15.55;76.39
68943;DHT22;60852;52.190;4.422;2022-09-01T04:25:20;15.51;76.41
68943;DHT22;60852;52.190;4.422;2022-09-01T04:27:52;15.49;76.43
68943;DHT22;60852;52.190;4.422;2022-09-01T04:30:22;15.49;76.35
68943;DHT22;60852;52.190;4.422;2022-09-01T04:32:51;15.47;76.35
68943;DHT22;60852;52.190;4.422;2022-09-01T04:35:22;15.47;76.23
68943;DHT22;60852;52.190;4.422;2022-09-01T04:37:59;15.46;76.14
68943;DHT22;60852;52.190;4.422;2022-09-01T04:40:26;15.46;76.08
68943;DHT22;60852;52.190;4.422;2022-09-01T04:42:51;15.43;75.98
68943;DHT22;60852;52.190;4.422;2022-09-01T04:45:16;15.42;75.88
68943;DHT22;60852;52.190;4.422;2022-09-01T04:47:44;15.43;75.95
68943;DHT22;60852;52.190;4.422;2022-09-01T04:50:11;15.43;75.89
68943;DHT22;60852;52.190;4.422;2022-09-01T04:52:42;15.42;75.80
68943;DHT22;60852;52.190;4.422;2022-09-01T04:55:13;15.43;75.76
68943;DHT22;60852;52.190;4.422;2022-09-01T04:57:46;15.39;75.71
68943;DHT22;60852;52.190;4.422;2022-09-01T05:00:25;15.36;75.63
68943;DHT22;60852;52.190;4.422;2022-09-01T05:02:55;15.34;75.65
68943;DHT22;60852;52.190;4.422;2022-09-01T05:05:35;15.42;75.54
68943;DHT22;60852;52.190;4.422;2022-09-01T05:08:04;15.42;75.23
68943;DHT22;60852;52.190;4.422;2022-09-01T05:10:29;15.43;74.88
68943;DHT22;60852;52.190;4.422;2022-09-01T05:12:57;15.46;74.85
68943;DHT22;60852;52.190;4.422;2022-09-01T05:15:22;15.47;74.57
68943;DHT22;60852;52.190;4.422;2022-09-01T05:17:48;15.47;74.36
68943;DHT22;60852;52.190;4.422;2022-09-01T05:20:14;15.46;74.41
68943;DHT22;60852;52.190;4.422;2022-09-01T05:22:40;15.44;74.21
68943;DHT22;60852;52.190;4.422;2022-09-01T05:25:07;15.49;74.21
68943;DHT22;60852;52.190;4.422;2022-09-01T05:27:43;15.49;73.95
68943;DHT22;60852;52.190;4.422;2022-09-01T05:30:15;15.50;73.62
68943;DHT22;60852;52.190;4.422;2022-09-01T05:32:42;15.54;73.38
68943;DHT22;60852;52.190;4.422;2022-09-01T05:35:08;15.55;73.07
68943;DHT22;60852;52.190;4.422;2022-09-01T05:37:35;15.61;72.80
68943;DHT22;60852;52.190;4.422;2022-09-01T05:40:06;15.64;72.39
68943;DHT22;60852;52.190;4.422;2022-09-01T05:42:33;15.71;72.14
68943;DHT22;60852;52.190;4.422;2022-09-01T05:44:59;15.75;71.74
68943;DHT22;60852;52.190;4.422;2022-09-01T05:47:26;15.80;71.52
68943;DHT22;60852;52.190;4.422;2022-09-01T05:49:53;15.83;71.14
68943;DHT22;60852;52.190;4.422;2022-09-01T05:52:21;15.90;70.97
68943;DHT22;60852;52.190;4.422;2022-09-01T05:54:49;15.95;70.54
68943;DHT22;60852;52.190;4.422;2022-09-01T05:57:16;16.02;70.28
68943;DHT22;60852;52.190;4.422;2022-09-01T05:59:42;16.09;69.67
68943;DHT22;60852;52.190;4.422;2022-09-01T06:02:08;16.12;70.18
68943;DHT22;60852;52.190;4.422;2022-09-01T06:04:34;16.16;69.83
68943;DHT22;60852;52.190;4.422;2022-09-01T06:07:00;16.19;69.72
68943;DHT22;60852;52.190;4.422;2022-09-01T06:09:26;16.19;69.18
68943;DHT22;60852;52.190;4.422;2022-09-01T06:11:51;16.19;69.27
68943;DHT22;60852;52.190;4.422;2022-09-01T06:14:21;16.16;69.08
68943;DHT22;60852;52.190;4.422;2022-09-01T06:16:46;16.18;68.48
68943;DHT22;60852;52.190;4.422;2022-09-01T06:19:12;16.19;68.75
68943;DHT22;60852;52.190;4.422;2022-09-01T06:21:38;16.28;68.96
68943;DHT22;60852;52.190;4.422;2022-09-01T06:24:04;16.36;68.49
68943;DHT22;60852;52.190;4.422;2022-09-01T06:26:34;16.41;68.34
68943;DHT22;60852;52.190;4.422;2022-09-01T06:29:03;16.46;67.63
68943;DHT22;60852;52.190;4.422;2022-09-01T06:31:32;16.51;67.51
68943;DHT22;60852;52.190;4.422;2022-09-01T06:34:05;16.57;67.71
68943;DHT22;60852;52.190;4.422;2022-09-01T06:36:35;16.66;67.32
68943;DHT22;60852;52.190;4.422;2022-09-01T06:39:02;16.80;66.09
68943;DHT22;60852;52.190;4.422;2022-09-01T06:41:28;16.90;65.85
68943;DHT22;60852;52.190;4.422;2022-09-01T06:43:55;16.93;65.22
68943;DHT22;60852;52.190;4.422;2022-09-01T06:46:21;16.95;64.80
68943;DHT22;60852;52.190;4.422;2022-09-01T06:48:49;17.00;64.80
68943;DHT22;60852;52.190;4.422;2022-09-01T06:51:17;17.08;64.52
68943;DHT22;60852;52.190;4.422;2022-09-01T06:53:45;17.21;64.17
68943;DHT22;60852;52.190;4.422;2022-09-01T06:56:14;17.28;63.57
68943;DHT22;60852;52.190;4.422;2022-09-01T06:58:44;17.35;63.50
68943;DHT22;60852;52.190;4.422;2022-09-01T07:01:15;17.32;63.70
68943;DHT22;60852;52.190;4.422;2022-09-01T07:03:46;17.42;63.62
68943;DHT22;60852;52.190;4.422;2022-09-01T07:06:13;17.53;63.55
68943;DHT22;60852;52.190;4.422;2022-09-01T07:08:41;17.61;62.79
68943;DHT22;60852;52.190;4.422;2022-09-01T07:11:19;17.63;62.73
68943;DHT22;60852;52.190;4.422;2022-09-01T07:13:54;17.55;62.95
68943;DHT22;60852;52.190;4.422;2022-09-01T07:16:22;17.59;63.25
68943;DHT22;60852;52.190;4.422;2022-09-01T07:18:49;17.65;62.96
68943;DHT22;60852;52.190;4.422;2022-09-01T07:21:16;17.73;62.17
68943;DHT22;60852;52.190;4.422;2022-09-01T07:23:42;17.80;62.64
68943;DHT22;60852;52.190;4.422;2022-09-01T07:26:09;17.94;62.39
68943;DHT22;60852;52.190;4.422;2022-09-01T07:28:35;18.00;61.25
68943;DHT22;60852;52.190;4.422;2022-09-01T07:31:01;18.03;61.27
68943;DHT22;60852;52.190;4.422;2022-09-01T07:33:28;18.14;60.73
68943;DHT22;60852;52.190;4.422;2022-09-01T07:35:55;18.17;60.82
68943;DHT22;60852;52.190;4.422;2022-09-01T07:38:22;18.21;60.59
68943;DHT22;60852;52.190;4.422;2022-09-01T07:40:48;18.30;60.62
68943;DHT22;60852;52.190;4.422;2022-09-01T07:43:23;18.37;60.60
68943;DHT22;60852;52.190;4.422;2022-09-01T07:45:52;18.30;60.29
68943;DHT22;60852;52.190;4.422;2022-09-01T07:48:22;18.21;61.06
68943;DHT22;60852;52.190;4.422;2022-09-01T07:50:52;18.17;60.94
68943;DHT22;60852;52.190;4.422;2022-09-01T07:53:27;18.13;61.32
68943;DHT22;60852;52.190;4.422;2022-09-01T07:55:57;18.21;61.52
68943;DHT22;60852;52.190;4.422;2022-09-01T07:58:25;18.29;61.37
68943;DHT22;60852;52.190;4.422;2022-09-01T08:00:52;18.36;60.69
68943;DHT22;60852;52.190;4.422;2022-09-01T08:03:22;18.38;60.72
68943;DHT22;60852;52.190;4.422;2022-09-01T08:05:50;18.38;60.73
68943;DHT22;60852;52.190;4.422;2022-09-01T08:08:20;18.45;60.62
68943;DHT22;60852;52.190;4.422;2022-09-01T08:10:46;18.55;60.85
68943;DHT22;60852;52.190;4.422;2022-09-01T08:13:13;18.67;60.28
68943;DHT22;60852;52.190;4.422;2022-09-01T08:15:39;18.84;59.99
68943;DHT22;60852;52.190;4.422;2022-09-01T08:18:05;18.92;59.97
68943;DHT22;60852;52.190;4.422;2022-09-01T08:20:32;19.02;59.62
68943;DHT22;60852;52.190;4.422;2022-09-01T08:23:02;19.05;59.59
68943;DHT22;60852;52.190;4.422;2022-09-01T08:25:29;19.05;59.69
68943;DHT22;60852;52.190;4.422;2022-09-01T08:27:55;19.23;59.09
68943;DHT22;60852;52.190;4.422;2022-09-01T08:30:21;19.36;58.91
68943;DHT22;60852;52.190;4.422;2022-09-01T08:32:48;19.40;58.82
68943;DHT22;60852;52.190;4.422;2022-09-01T08:35:14;19.45;59.06
68943;DHT22;60852;52.190;4.422;2022-09-01T08:37:42;19.56;58.82
68943;DHT22;60852;52.190;4.422;2022-09-01T08:40:12;19.74;58.28
68943;DHT22;60852;52.190;4.422;2022-09-01T08:45:28;19.97;56.22
68943;DHT22;60852;52.190;4.422;2022-09-01T08:48:01;20.04;56.57
68943;DHT22;60852;52.190;4.422;2022-09-01T08:50:31;20.09;56.52
68943;DHT22;60852;52.190;4.422;2022-09-01T08:53:30;20.19;55.98
68943;DHT22;60852;52.190;4.422;2022-09-01T08:55:58;20.30;55.68
68943;DHT22;60852;52.190;4.422;2022-09-01T08:58:26;20.43;55.49
68943;DHT22;60852;52.190;4.422;2022-09-01T09:01:08;20.50;55.67
68943;DHT22;60852;52.190;4.422;2022-09-01T09:04:03;20.75;54.71
68943;DHT22;60852;52.190;4.422;2022-09-01T09:06:57;20.84;53.75
68943;DHT22;60852;52.190;4.422;2022-09-01T09:09:40;20.94;53.64
68943;DHT22;60852;52.190;4.422;2022-09-01T09:12:28;21.01;53.41
68943;DHT22;60852;52.190;4.422;2022-09-01T09:15:10;21.07;53.06
68943;DHT22;60852;52.190;4.422;2022-09-01T09:17:47;21.08;53.43
68943;DHT22;60852;52.190;4.422;2022-09-01T09:20:15;21.04;53.61
68943;DHT22;60852;52.190;4.422;2022-09-01T09:22:45;21.01;53.51
68943;DHT22;60852;52.190;4.422;2022-09-01T09:25:15;21.14;53.67
68943;DHT22;60852;52.190;4.422;2022-09-01T09:27:44;21.27;53.81
68943;DHT22;60852;52.190;4.422;2022-09-01T09:30:22;21.51;52.43
68943;DHT22;60852;52.190;4.422;2022-09-01T09:35:41;21.66;52.77
68943;DHT22;60852;52.190;4.422;2022-09-01T09:38:21;21.79;51.67
68943;DHT22;60852;52.190;4.422;2022-09-01T09:43:25;22.06;50.43
68943;DHT22;60852;52.190;4.422;2022-09-01T09:46:32;21.96;49.95
68943;DHT22;60852;52.190;4.422;2022-09-01T09:51:30;22.03;49.39
68943;DHT22;60852;52.190;4.422;2022-09-01T09:54:10;22.03;49.49
68943;DHT22;60852;52.190;4.422;2022-09-01T09:56:37;22.07;49.44
68943;DHT22;60852;52.190;4.422;2022-09-01T09:59:18;22.07;49.27
68943;DHT22;60852;52.190;4.422;2022-09-01T10:01:45;22.07;49.20
68943;DHT22;60852;52.190;4.422;2022-09-01T10:04:35;22.14;49.59
68943;DHT22;60852;52.190;4.422;2022-09-01T10:07:29;22.45;47.97
68943;DHT22;60852;52.190;4.422;2022-09-01T10:09:57;22.61;47.77
68943;DHT22;60852;52.190;4.422;2022-09-01T10:12:26;22.84;47.76
68943;DHT22;60852;52.190;4.422;2022-09-01T10:14:57;23.46;45.74
68943;DHT22;60852;52.190;4.422;2022-09-01T10:17:39;24.14;44.31
68943;DHT22;60852;52.190;4.422;2022-09-01T10:20:26;24.60;43.26
68943;DHT22;60852;52.190;4.422;2022-09-01T10:22:53;24.94;41.92
68943;DHT22;60852;52.190;4.422;2022-09-01T10:25:22;24.69;42.49
68943;DHT22;60852;52.190;4.422;2022-09-01T10:27:58;24.80;42.15
68943;DHT22;60852;52.190;4.422;2022-09-01T10:30:28;24.90;42.07
68943;DHT22;60852;52.190;4.422;2022-09-01T10:32:56;25.02;40.95
68943;DHT22;60852;52.190;4.422;2022-09-01T10:35:29;24.90;41.24
68943;DHT22;60852;52.190;4.422;2022-09-01T10:38:02;24.75;41.40
68943;DHT22;60852;52.190;4.422;2022-09-01T10:40:40;24.80;41.59
68943;DHT22;60852;52.190;4.422;2022-09-01T10:43:32;24.99;40.36
68943;DHT22;60852;52.190;4.422;2022-09-01T10:45:59;25.48;40.81
68943;DHT22;60852;52.190;4.422;2022-09-01T10:48:28;25.30;40.33
68943;DHT22;60852;52.190;4.422;2022-09-01T10:53:51;25.89;39.09
68943;DHT22;60852;52.190;4.422;2022-09-01T10:56:24;26.27;38.47
68943;DHT22;60852;52.190;4.422;2022-09-01T11:07:02;24.52;41.21
68943;DHT22;60852;52.190;4.422;2022-09-01T11:09:35;24.08;41.72
68943;DHT22;60852;52.190;4.422;2022-09-01T11:14:54;23.81;42.58
68943;DHT22;60852;52.190;4.422;2022-09-01T11:17:26;23.88;42.69
68943;DHT22;60852;52.190;4.422;2022-09-01T11:30:31;24.86;40.70
68943;DHT22;60852;52.190;4.422;2022-09-01T11:33:12;24.49;40.61
68943;DHT22;60852;52.190;4.422;2022-09-01T11:35:44;24.45;41.19
68943;DHT22;60852;52.190;4.422;2022-09-01T11:38:14;24.66;41.37
68943;DHT22;60852;52.190;4.422;2022-09-01T11:40:40;24.51;40.50
68943;DHT22;60852;52.190;4.422;2022-09-01T11:43:13;24.38;40.77
68943;DHT22;60852;52.190;4.422;2022-09-01T11:45:58;24.58;41.31
68943;DHT22;60852;52.190;4.422;2022-09-01T11:48:26;24.79;39.26
68943;DHT22;60852;52.190;4.422;2022-09-01T11:51:02;24.58;40.08
68943;DHT22;60852;52.190;4.422;2022-09-01T11:53:28;24.80;39.52
68943;DHT22;60852;52.190;4.422;2022-09-01T11:56:13;24.68;39.07
68943;DHT22;60852;52.190;4.422;2022-09-01T11:58:39;24.87;39.74
68943;DHT22;60852;52.190;4.422;2022-09-01T12:03:37;25.13;38.43
68943;DHT22;60852;52.190;4.422;2022-09-01T12:06:06;25.34;37.41
68943;DHT22;60852;52.190;4.422;2022-09-01T12:08:39;25.62;36.41
68943;DHT22;60852;52.190;4.422;2022-09-01T12:14:07;25.89;35.23
68943;DHT22;60852;52.190;4.422;2022-09-01T12:16:35;25.84;35.48
68943;DHT22;60852;52.190;4.422;2022-09-01T12:19:03;25.82;35.70
68943;DHT22;60852;52.190;4.422;2022-09-01T12:21:33;25.38;36.31
68943;DHT22;60852;52.190;4.422;2022-09-01T12:24:16;25.16;36.12
68943;DHT22;60852;52.190;4.422;2022-09-01T12:26:43;25.07;36.69
68943;DHT22;60852;52.190;4.422;2022-09-01T12:29:11;25.34;35.84
68943;DHT22;60852;52.190;4.422;2022-09-01T12:31:43;25.61;35.17
68943;DHT22;60852;52.190;4.422;2022-09-01T12:39:42;25.64;34.79
68943;DHT22;60852;52.190;4.422;2022-09-01T12:49:58;25.78;33.96
68943;DHT22;60852;52.190;4.422;2022-09-01T12:52:26;25.26;34.76
68943;DHT22;60852;52.190;4.422;2022-09-01T12:55:11;24.93;35.91
68943;DHT22;60852;52.190;4.422;2022-09-01T12:57:45;24.77;36.08
68943;DHT22;60852;52.190;4.422;2022-09-01T13:05:33;25.13;35.70
68943;DHT22;60852;52.190;4.422;2022-09-01T13:08:02;25.27;35.98
68943;DHT22;60852;52.190;4.422;2022-09-01T13:10:48;25.16;35.02
68943;DHT22;60852;52.190;4.422;2022-09-01T13:13:15;25.04;35.68
68943;DHT22;60852;52.190;4.422;2022-09-01T13:15:48;25.26;35.93
68943;DHT22;60852;52.190;4.422;2022-09-01T13:18:19;25.59;35.15
68943;DHT22;60852;52.190;4.422;2022-09-01T13:20:46;25.82;34.50
68943;DHT22;60852;52.190;4.422;2022-09-01T13:23:12;25.96;34.34
68943;DHT22;60852;52.190;4.422;2022-09-01T13:25:39;26.16;34.03
68943;DHT22;60852;52.190;4.422;2022-09-01T13:28:06;26.26;32.46
68943;DHT22;60852;52.190;4.422;2022-09-01T13:30:33;26.20;33.33
68943;DHT22;60852;52.190;4.422;2022-09-01T13:32:59;25.79;34.19
68943;DHT22;60852;52.190;4.422;2022-09-01T13:35:24;25.35;34.95
68943;DHT22;60852;52.190;4.422;2022-09-01T13:37:50;25.13;35.14
68943;DHT22;60852;52.190;4.422;2022-09-01T13:40:18;25.11;35.61
68943;DHT22;60852;52.190;4.422;2022-09-01T13:42:50;25.23;35.23
68943;DHT22;60852;52.190;4.422;2022-09-01T13:45:17;25.08;34.61
68943;DHT22;60852;52.190;4.422;2022-09-01T13:47:46;24.96;34.40
68943;DHT22;60852;52.190;4.422;2022-09-01T13:50:13;24.77;34.33
68943;DHT22;60852;52.190;4.422;2022-09-01T13:52:42;24.80;35.15
68943;DHT22;60852;52.190;4.422;2022-09-01T13:55:14;24.87;35.15
68943;DHT22;60852;52.190;4.422;2022-09-01T13:57:40;24.97;34.68
68943;DHT22;60852;52.190;4.422;2022-09-01T14:00:10;24.79;34.73
68943;DHT22;60852;52.190;4.422;2022-09-01T14:02:42;24.82;34.60
68943;DHT22;60852;52.190;4.422;2022-09-01T14:05:14;24.96;34.04
68943;DHT22;60852;52.190;4.422;2022-09-01T14:07:39;25.08;34.43
68943;DHT22;60852;52.190;4.422;2022-09-01T14:10:05;25.02;34.61
68943;DHT22;60852;52.190;4.422;2022-09-01T14:12:31;25.08;34.17
68943;DHT22;60852;52.190;4.422;2022-09-01T14:14:57;25.08;34.06
68943;DHT22;60852;52.190;4.422;2022-09-01T14:17:23;25.16;34.20
68943;DHT22;60852;52.190;4.422;2022-09-01T14:19:49;25.27;33.67
68943;DHT22;60852;52.190;4.422;2022-09-01T14:22:15;25.42;33.28
68943;DHT22;60852;52.190;4.422;2022-09-01T14:24:40;25.62;32.86
68943;DHT22;60852;52.190;4.422;2022-09-01T14:27:06;25.45;32.49
68943;DHT22;60852;52.190;4.422;2022-09-01T14:29:31;25.23;33.64
68943;DHT22;60852;52.190;4.422;2022-09-01T14:31:57;25.31;32.60
68943;DHT22;60852;52.190;4.422;2022-09-01T14:34:23;25.11;33.58
68943;DHT22;60852;52.190;4.422;2022-09-01T14:36:50;25.11;33.34
68943;DHT22;60852;52.190;4.422;2022-09-01T14:39:17;25.11;33.83
68943;DHT22;60852;52.190;4.422;2022-09-01T14:41:42;25.08;33.12
68943;DHT22;60852;52.190;4.422;2022-09-01T14:44:08;25.03;33.17
68943;DHT22;60852;52.190;4.422;2022-09-01T14:46:33;24.94;33.64
68943;DHT22;60852;52.190;4.422;2022-09-01T14:49:02;24.87;34.18
68943;DHT22;60852;52.190;4.422;2022-09-01T14:51:29;24.91;34.14
68943;DHT22;60852;52.190;4.422;2022-09-01T14:53:56;24.91;33.56
68943;DHT22;60852;52.190;4.422;2022-09-01T14:56:23;24.96;34.13
68943;DHT22;60852;52.190;4.422;2022-09-01T14:58:50;24.93;33.93
68943;DHT22;60852;52.190;4.422;2022-09-01T15:01:18;24.99;34.76
68943;DHT22;60852;52.190;4.422;2022-09-01T15:03:45;24.90;34.21
68943;DHT22;60852;52.190;4.422;2022-09-01T15:06:12;24.91;34.68
68943;DHT22;60852;52.190;4.422;2022-09-01T15:08:38;25.00;34.07
68943;DHT22;60852;52.190;4.422;2022-09-01T15:11:13;24.84;35.07
68943;DHT22;60852;52.190;4.422;2022-09-01T15:13:40;24.79;35.35
68943;DHT22;60852;52.190;4.422;2022-09-01T15:16:15;24.87;35.56
68943;DHT22;60852;52.190;4.422;2022-09-01T15:18:43;24.90;35.95
68943;DHT22;60852;52.190;4.422;2022-09-01T15:21:20;25.00;35.90
68943;DHT22;60852;52.190;4.422;2022-09-01T15:23:46;25.10;36.03
68943;DHT22;60852;52.190;4.422;2022-09-01T15:26:13;25.13;36.03
68943;DHT22;60852;52.190;4.422;2022-09-01T15:28:40;25.24;35.54
68943;DHT22;60852;52.190;4.422;2022-09-01T15:31:05;25.18;35.80
68943;DHT22;60852;52.190;4.422;2022-09-01T15:33:31;25.11;36.10
68943;DHT22;60852;52.190;4.422;2022-09-01T15:35:56;25.04;36.17
68943;DHT22;60852;52.190;4.422;2022-09-01T15:38:22;25.10;35.89
68943;DHT22;60852;52.190;4.422;2022-09-01T15:40:48;25.10;35.60
68943;DHT22;60852;52.190;4.422;2022-09-01T15:43:13;24.99;35.45
68943;DHT22;60852;52.190;4.422;2022-09-01T15:45:39;25.00;35.18
68943;DHT22;60852;52.190;4.422;2022-09-01T15:48:06;25.00;35.97
68943;DHT22;60852;52.190;4.422;2022-09-01T15:50:31;25.08;36.02
68943;DHT22;60852;52.190;4.422;2022-09-01T15:52:59;25.13;35.48
68943;DHT22;60852;52.190;4.422;2022-09-01T15:55:29;25.02;35.71
68943;DHT22;60852;52.190;4.422;2022-09-01T15:57:55;24.91;35.46
68943;DHT22;60852;52.190;4.422;2022-09-01T16:00:23;24.80;35.59
68943;DHT22;60852;52.190;4.422;2022-09-01T16:02:49;24.73;36.39
68943;DHT22;60852;52.190;4.422;2022-09-01T16:05:15;24.83;35.97
68943;DHT22;60852;52.190;4.422;2022-09-01T16:07:42;24.89;35.48
68943;DHT22;60852;52.190;4.422;2022-09-01T16:10:09;24.86;35.00
68943;DHT22;60852;52.190;4.422;2022-09-01T16:12:41;24.80;35.58
68943;DHT22;60852;52.190;4.422;2022-09-01T16:15:10;24.89;35.85
68943;DHT22;60852;52.190;4.422;2022-09-01T16:17:42;24.97;35.69
68943;DHT22;60852;52.190;4.422;2022-09-01T16:20:49;25.06;35.27
68943;DHT22;60852;52.190;4.422;2022-09-01T16:23:20;25.02;35.59
68943;DHT22;60852;52.190;4.422;2022-09-01T16:25:47;25.08;35.67
68943;DHT22;60852;52.190;4.422;2022-09-01T16:28:29;24.99;35.70
68943;DHT22;60852;52.190;4.422;2022-09-01T16:31:09;24.89;36.19
68943;DHT22;60852;52.190;4.422;2022-09-01T16:33:36;24.84;36.31
68943;DHT22;60852;52.190;4.422;2022-09-01T16:47:23;24.58;37.98
68943;DHT22;60852;52.190;4.422;2022-09-01T16:49:57;24.60;39.19
68943;DHT22;60852;52.190;4.422;2022-09-01T16:52:36;24.53;38.99
68943;DHT22;60852;52.190;4.422;2022-09-01T16:55:19;24.42;39.20
68943;DHT22;60852;52.190;4.422;2022-09-01T16:58:24;24.29;38.87